ADDS TAF Data INFO
IDs: Format: Raw Decoded Include METARs

Data at: 2027 UTC 20 Jul 2017

Region: TOP
KATL 201931Z 2020/2124 34011G17KT P6SM VCSH SCT060
  FM210100 26003KT P6SM SCT250
  FM211400 29003KT P6SM FEW040
  FM211800 20008KT P6SM SCT050


KBOS 201729Z 2018/2124 24008KT P6SM VCSH SCT060
  FM210000 24007KT P6SM VCSH BKN060
  FM210300 26008KT P6SM BKN130


KBWI 201723Z 2018/2124 30011G14KT P6SM FEW050
  FM202200 23006KT P6SM SCT070
  FM211100 29004KT P6SM FEW250
  FM211500 31008KT P6SM SCT060


KCLE 201720Z 2018/2124 29012G20KT P6SM VCTS SCT035CB BKN045
  FM202000 25011KT P6SM BKN035
  FM210900 27006KT 3SM BR SCT002
  FM211400 36006KT P6SM SCT040


KCLT 201730Z 2018/2118 34005KT P6SM FEW050 SCT250
  FM202000 21004KT P6SM SCT060 BKN250
  FM210100 18003KT P6SM SCT250
  FM211000 30003KT P6SM SCT250
  FM211600 24004KT P6SM FEW050 SCT250


KCVG 201742Z 2018/2124 25007KT P6SM VCTS SCT035CB BKN250
  TEMPO 2018/2019 VRB25KT 3SM TSRA BKN035CB
  FM201900 25007KT P6SM SCT040 BKN250
  FM202300 24006KT P6SM SCT150
  FM210800 25004KT P6SM VCSH BKN130
  FM211200 26003KT P6SM BKN130
  FM211800 25004KT P6SM SCT035


KDCA 201723Z 2018/2118 26006KT P6SM FEW050
  FM202100 22007KT P6SM SCT070
  FM211100 28005KT P6SM FEW250
  FM211500 31007KT P6SM SCT050


KDEN 201727Z 2018/2124 03007KT P6SM FEW080 SCT140
  FM202200 29012KT P6SM VCTS SCT080CB BKN120
  TEMPO 2022/2102 VRB20G30KT -TSRA BKN070CB
  FM210200 22012KT P6SM VCSH SCT080 BKN120
  FM210600 20011KT P6SM FEW120 SCT220
  FM211600 01008KT P6SM FEW080 SCT140
  FM212200 34010KT P6SM VCSH SCT080 BKN120


KDFW 201728Z 2018/2124 17008KT P6SM FEW050

KDTW 201725Z 2018/2124 26011KT P6SM BKN045
  FM202300 30007KT P6SM SCT045
  FM210200 VRB03KT P6SM SCT250
  TEMPO 2109/2112 6SM BR


KEWR 202010Z 2020/2124 26013G20KT P6SM SCT070 SCT250
  FM202200 24012G17KT P6SM SCT080 SCT200
  TEMPO 2023/2102 2SM TSRA SCT025 BKN035CB
  FM210200 31007KT P6SM FEW060
  FM211500 29008KT P6SM FEW050
  FM211800 27011KT P6SM SCT060


KFLL 201835Z 2019/2118 12010KT P6SM VCTS SCT025CB BKN050
  FM210200 20004KT P6SM SCT025 BKN250
  FM211500 15008KT P6SM VCTS SCT025CB BKN100


KIAD 201723Z 2018/2124 27006KT P6SM FEW040
  FM202200 VRB04KT P6SM SCT070
  FM212000 30007KT P6SM SCT060


KIAH 201725Z 2018/2124 VRB04KT P6SM SCT045 SCT250
  FM202000 15005KT P6SM VCSH SCT060 BKN250
  FM210100 15006KT P6SM SCT250
  FM211000 VRB02KT P6SM FEW020 SCT250
  FM211700 VRB04KT P6SM SCT050 SCT250
  FM212000 12006KT P6SM VCSH SCT060 BKN250


KJFK 202011Z 2020/2124 19015KT P6SM SCT060 SCT250
  TEMPO 2023/2102 2SM TSRA SCT025 BKN035CB
  FM210200 32007KT P6SM FEW060
  FM211500 28009KT P6SM FEW050
  FM212000 24012KT P6SM SCT050


KLAS 201734Z 2018/2124 12006KT P6SM SCT120 BKN250
  FM202100 18008KT P6SM SCT120 SCT250
  FM210600 22010KT P6SM SCT120 SCT250
  FM211200 VRB05KT P6SM SCT120 SCT250
  FM211700 14006KT P6SM SCT120 SCT250


KLAX 201729Z 2018/2124 22006KT P6SM SKC
  FM202000 26012KT P6SM SKC
  FM210500 26006KT P6SM SCT010
  FM210900 VRB03KT P6SM BKN008
  FM211300 VRB03KT P6SM BKN012
  FM211600 24006KT P6SM SCT015
  FM212000 26012KT P6SM SKC


KLGA 201939Z 2020/2118 25010G16KT P6SM SCT070 SCT250
  FM202100 21010KT P6SM SCT080 SCT200
  TEMPO 2023/2102 2SM TSRA SCT025 BKN035CB
  FM210200 32007KT P6SM FEW060
  FM211500 29008KT P6SM FEW050


KMCO 202011Z 2020/2118 09012KT P6SM VCTS SCT035CB BKN080
  TEMPO 2020/2023 VRB15G25KT 3SM TSRA BKN030CB
  FM210000 12006KT P6SM VCSH FEW040 BKN120 OVC250
  FM211400 24005KT P6SM SCT035


KMDW 201927Z 2019/2118 27013KT P6SM BKN035
  FM202100 03012KT P6SM VCTS BKN040CB
  FM210000 06009KT P6SM BKN050
  FM211500 12005KT P6SM BKN100


KMEM 201727Z 2018/2118 25006KT P6SM SCT050
  FM210100 20003KT P6SM FEW250
  FM211600 24005KT P6SM SCT045


KMIA 201836Z 2019/2118 12010KT P6SM VCTS SCT025CB BKN050
  FM210200 20004KT P6SM SCT025 BKN250
  FM211500 15008KT P6SM VCTS SCT025CB BKN100


KMSP 201743Z 2018/2124 33006KT P6SM SCT300
  FM210200 VRB03KT P6SM SCT250
  FM211200 14006KT P6SM BKN150
  FM211800 14009KT P6SM VCSH SCT050 BKN100
  PROB30 2120/2124 6SM -TSRA BKN040CB


KORD 201927Z 2019/2124 28009KT P6SM BKN035
  FM202200 03012KT P6SM VCTS BKN040CB
  FM210000 04007KT P6SM BKN050
  FM211500 12005KT P6SM BKN100
  PROB30 2119/2122 TSRA BKN050CB


KPDX 201729Z 2018/2118 20006KT P6SM BKN030
  FM202000 28006KT P6SM BKN050
  FM210200 33004KT P6SM SCT040 BKN250


KPHL 201740Z 2018/2124 25010KT P6SM SCT050
  FM210200 25006KT P6SM SCT100
  FM211000 31006KT P6SM SCT100
  FM211600 26010KT P6SM SCT050


KPHX 201720Z 2018/2124 13007KT P6SM BKN150 BKN200
  FM202000 27008KT P6SM FEW090 SCT150 SCT250
  FM210600 12006KT P6SM SCT090 BKN150 BKN250
  FM212100 26008KT P6SM FEW090 BKN120 BKN250


KPIT 201728Z 2018/2124 23010KT P6SM SCT040
  FM202200 23008KT P6SM VCTS BKN045CB
  FM210200 26003KT P6SM SCT050


KSAN 201957Z 2020/2124 24008KT P6SM FEW013 SCT150
  FM210100 VRB06KT P6SM SCT010
  FM210400 VRB04KT P6SM BKN010
  FM211600 VRB04KT P6SM SCT015
  FM212000 26008KT P6SM FEW100


KSEA 201720Z 2018/2124 19012KT P6SM SCT020 BKN050
  TEMPO 2018/2020 BKN020 OVC050
  FM202000 22010KT P6SM SCT030 BKN060
  FM210500 33005KT P6SM SCT040 BKN080
  FM211200 17003KT P6SM BKN020 BKN150
  FM211800 22004KT P6SM SCT025 BKN100


KSFO 201720Z 2018/2124 27014KT P6SM SCT025
  FM201900 28018KT P6SM SKC
  FM202300 28023G28KT P6SM SKC
  FM210600 28015KT P6SM FEW010
  FM210900 28010KT P6SM BKN010
  FM211600 27008KT P6SM SCT010
  FM212000 27014KT P6SM SKC


KSLC 202011Z 2020/2124 17015G23KT P6SM FEW080 BKN180
  FM202300 17015G23KT P6SM VCSH SCT080 BKN150
  FM210200 16014KT P6SM VCSH SCT080 BKN140
  FM210600 15013KT P6SM SCT130 BKN200
  FM211900 33010KT P6SM FEW090


KSTL 201720Z 2018/2124 25007KT P6SM SCT050
  FM210100 VRB04KT P6SM FEW250
  FM211600 23006KT P6SM SCT050


KTPA 201720Z 2018/2118 26006KT P6SM VCTS BKN040CB BKN100
  TEMPO 2018/2021 VRB15G25KT 3SM +TSRA BKN025CB
  FM202200 30006KT P6SM SHRA VCTS BKN050CB BKN150
  FM210200 VRB03KT P6SM FEW150 SCT250
  FM211400 24004KT P6SM VCTS SCT030CB SCT250